sensor_id;sensor_type;location;lat;lon;timestamp;pressure;altitude;pressure_sealevel;temperature
48854;BMP280;34673;52.808;17.856;2024-01-30T00:01:18;101889.13;;;2.56
48854;BMP280;34673;52.808;17.856;2024-01-30T00:03:45;101876.84;;;2.49
48854;BMP280;34673;52.808;17.856;2024-01-30T00:06:13;101881.16;;;2.50
48854;BMP280;34673;52.808;17.856;2024-01-30T00:08:40;101890.44;;;2.48
48854;BMP280;34673;52.808;17.856;2024-01-30T00:11:07;101879.34;;;2.48
48854;BMP280;34673;52.808;17.856;2024-01-30T00:13:34;101879.63;;;2.54
48854;BMP280;34673;52.808;17.856;2024-01-30T00:16:01;101882.41;;;2.58
48854;BMP280;34673;52.808;17.856;2024-01-30T00:18:29;101885.91;;;2.60
48854;BMP280;34673;52.808;17.856;2024-01-30T00:20:56;101887.69;;;2.61
48854;BMP280;34673;52.808;17.856;2024-01-30T00:23:23;101886.81;;;2.61
48854;BMP280;34673;52.808;17.856;2024-01-30T00:25:51;101877.94;;;2.54
48854;BMP280;34673;52.808;17.856;2024-01-30T00:28:18;101883.88;;;2.53
48854;BMP280;34673;52.808;17.856;2024-01-30T00:30:46;101885.47;;;2.51
48854;BMP280;34673;52.808;17.856;2024-01-30T00:33:13;101877.66;;;2.48
48854;BMP280;34673;52.808;17.856;2024-01-30T00:35:40;101871.28;;;2.40
48854;BMP280;34673;52.808;17.856;2024-01-30T00:38:07;101875.59;;;2.41
48854;BMP280;34673;52.808;17.856;2024-01-30T00:40:35;101873.03;;;2.41
48854;BMP280;34673;52.808;17.856;2024-01-30T00:43:02;101869.69;;;2.42
48854;BMP280;34673;52.808;17.856;2024-01-30T00:45:29;101866.34;;;2.43
48854;BMP280;34673;52.808;17.856;2024-01-30T00:47:56;101871.44;;;2.43
48854;BMP280;34673;52.808;17.856;2024-01-30T00:50:23;101869.84;;;2.45
48854;BMP280;34673;52.808;17.856;2024-01-30T00:52:51;101874.94;;;2.45
48854;BMP280;34673;52.808;17.856;2024-01-30T00:55:18;101870.72;;;2.46
48854;BMP280;34673;52.808;17.856;2024-01-30T00:57:45;101875.09;;;2.48
48854;BMP280;34673;52.808;17.856;2024-01-30T01:00:14;101874.38;;;2.51
48854;BMP280;34673;52.808;17.856;2024-01-30T01:02:44;101876.13;;;2.52
48854;BMP280;34673;52.808;17.856;2024-01-30T01:05:12;101867.50;;;2.50
48854;BMP280;34673;52.808;17.856;2024-01-30T01:07:39;101878.75;;;2.53
48854;BMP280;34673;52.808;17.856;2024-01-30T01:10:07;101870.28;;;2.54
48854;BMP280;34673;52.808;17.856;2024-01-30T01:12:35;101872.06;;;2.55
48854;BMP280;34673;52.808;17.856;2024-01-30T01:15:02;101866.19;;;2.58
48854;BMP280;34673;52.808;17.856;2024-01-30T01:17:30;101861.97;;;2.58
48854;BMP280;34673;52.808;17.856;2024-01-30T01:19:57;101863.72;;;2.59
48854;BMP280;34673;52.808;17.856;2024-01-30T01:22:24;101859.44;;;2.58
48854;BMP280;34673;52.808;17.856;2024-01-30T01:24:51;101859.47;;;2.60
48854;BMP280;34673;52.808;17.856;2024-01-30T01:27:18;101842.41;;;2.59
48854;BMP280;34673;52.808;17.856;2024-01-30T01:29:45;101843.16;;;2.56
48854;BMP280;34673;52.808;17.856;2024-01-30T01:32:13;101846.81;;;2.61
48854;BMP280;34673;52.808;17.856;2024-01-30T01:34:40;101850.31;;;2.63
48854;BMP280;34673;52.808;17.856;2024-01-30T01:37:07;101847.75;;;2.63
48854;BMP280;34673;52.808;17.856;2024-01-30T01:39:34;101855.41;;;2.63
48854;BMP280;34673;52.808;17.856;2024-01-30T01:42:02;101845.03;;;2.60
48854;BMP280;34673;52.808;17.856;2024-01-30T01:44:29;101853.66;;;2.62
48854;BMP280;34673;52.808;17.856;2024-01-30T01:46:56;101848.47;;;2.61
48854;BMP280;34673;52.808;17.856;2024-01-30T01:49:25;101848.41;;;2.59
48854;BMP280;34673;52.808;17.856;2024-01-30T01:51:55;101846.81;;;2.61
48854;BMP280;34673;52.808;17.856;2024-01-30T01:54:26;101842.41;;;2.59
48854;BMP280;34673;52.808;17.856;2024-01-30T01:56:55;101853.66;;;2.62
48854;BMP280;34673;52.808;17.856;2024-01-30T01:59:23;101849.50;;;2.64
48854;BMP280;34673;52.808;17.856;2024-01-30T02:01:52;101846.94;;;2.64
48854;BMP280;34673;52.808;17.856;2024-01-30T02:04:20;101845.19;;;2.63
48854;BMP280;34673;52.808;17.856;2024-01-30T02:06:47;101842.66;;;2.63
48854;BMP280;34673;52.808;17.856;2024-01-30T02:09:15;101850.47;;;2.66
48854;BMP280;34673;52.808;17.856;2024-01-30T02:11:42;101836.59;;;2.61
48854;BMP280;34673;52.808;17.856;2024-01-30T02:14:09;101841.84;;;2.64
48854;BMP280;34673;52.808;17.856;2024-01-30T02:16:36;101838.25;;;2.61
48854;BMP280;34673;52.808;17.856;2024-01-30T02:19:03;101846.94;;;2.64
48854;BMP280;34673;52.808;17.856;2024-01-30T02:21:32;101839.19;;;2.63
48854;BMP280;34673;52.808;17.856;2024-01-30T02:23:59;101841.59;;;2.60
48854;BMP280;34673;52.808;17.856;2024-01-30T02:26:26;101848.53;;;2.62
48854;BMP280;34673;52.808;17.856;2024-01-30T02:28:53;101848.53;;;2.62
48854;BMP280;34673;52.808;17.856;2024-01-30T02:31:21;101847.66;;;2.62
48854;BMP280;34673;52.808;17.856;2024-01-30T02:33:48;101848.47;;;2.61
48854;BMP280;34673;52.808;17.856;2024-01-30T02:36:15;101837.16;;;2.56
48854;BMP280;34673;52.808;17.856;2024-01-30T02:38:42;101848.41;;;2.59
48854;BMP280;34673;52.808;17.856;2024-01-30T02:41:09;101840.72;;;2.59
48854;BMP280;34673;52.808;17.856;2024-01-30T02:43:36;101846.66;;;2.58
48854;BMP280;34673;52.808;17.856;2024-01-30T02:46:03;101841.69;;;2.61
48854;BMP280;34673;52.808;17.856;2024-01-30T02:48:31;101843.44;;;2.62
48854;BMP280;34673;52.808;17.856;2024-01-30T02:50:58;101841.69;;;2.61
48854;BMP280;34673;52.808;17.856;2024-01-30T02:53:25;101843.28;;;2.59
48854;BMP280;34673;52.808;17.856;2024-01-30T02:55:52;101838.19;;;2.59
48854;BMP280;34673;52.808;17.856;2024-01-30T02:58:19;101845.56;;;2.53
48854;BMP280;34673;52.808;17.856;2024-01-30T03:00:46;101839.50;;;2.51
48854;BMP280;34673;52.808;17.856;2024-01-30T03:03:14;101844.75;;;2.54
48854;BMP280;34673;52.808;17.856;2024-01-30T03:05:41;101837.88;;;2.53
48854;BMP280;34673;52.808;17.856;2024-01-30T03:08:08;101840.44;;;2.53
48854;BMP280;34673;52.808;17.856;2024-01-30T03:10:35;101844.75;;;2.54
48854;BMP280;34673;52.808;17.856;2024-01-30T03:13:03;101837.03;;;2.53
48854;BMP280;34673;52.808;17.856;2024-01-30T03:15:30;101844.75;;;2.54
48854;BMP280;34673;52.808;17.856;2024-01-30T03:17:57;101843.88;;;2.54
48854;BMP280;34673;52.808;17.856;2024-01-30T03:20:25;101835.97;;;2.49
48854;BMP280;34673;52.808;17.856;2024-01-30T03:22:53;101843.00;;;2.53
48854;BMP280;34673;52.808;17.856;2024-01-30T03:25:20;101837.88;;;2.53
48854;BMP280;34673;52.808;17.856;2024-01-30T03:27:48;101843.00;;;2.53
48854;BMP280;34673;52.808;17.856;2024-01-30T03:30:15;101844.75;;;2.54
48854;BMP280;34673;52.808;17.856;2024-01-30T03:32:43;101830.09;;;2.50
48854;BMP280;34673;52.808;17.856;2024-01-30T03:35:10;101840.34;;;2.52
48854;BMP280;34673;52.808;17.856;2024-01-30T03:37:38;101834.47;;;2.53
48854;BMP280;34673;52.808;17.856;2024-01-30T03:40:05;101841.09;;;2.49
48854;BMP280;34673;52.808;17.856;2024-01-30T03:42:33;101841.41;;;2.55
48854;BMP280;34673;52.808;17.856;2024-01-30T03:45:00;101842.31;;;2.57
48854;BMP280;34673;52.808;17.856;2024-01-30T03:47:27;101836.28;;;2.55
48854;BMP280;34673;52.808;17.856;2024-01-30T03:49:54;101833.66;;;2.54
48854;BMP280;34673;52.808;17.856;2024-01-30T03:52:21;101840.44;;;2.53
48854;BMP280;34673;52.808;17.856;2024-01-30T03:54:48;101834.22;;;2.48
48854;BMP280;34673;52.808;17.856;2024-01-30T03:57:16;101840.34;;;2.52
48854;BMP280;34673;52.808;17.856;2024-01-30T03:59:43;101836.94;;;2.51
48854;BMP280;34673;52.808;17.856;2024-01-30T04:02:11;101834.38;;;2.51
48854;BMP280;34673;52.808;17.856;2024-01-30T04:04:40;101839.50;;;2.51
48854;BMP280;34673;52.808;17.856;2024-01-30T04:07:08;101832.63;;;2.50
48854;BMP280;34673;52.808;17.856;2024-01-30T04:09:35;101831.72;;;2.50
48854;BMP280;34673;52.808;17.856;2024-01-30T04:12:02;101834.38;;;2.51
48854;BMP280;34673;52.808;17.856;2024-01-30T04:14:30;101832.63;;;2.50
48854;BMP280;34673;52.808;17.856;2024-01-30T04:16:57;101827.38;;;2.47
48854;BMP280;34673;52.808;17.856;2024-01-30T04:19:25;101827.53;;;2.50
48854;BMP280;34673;52.808;17.856;2024-01-30T04:21:52;101837.88;;;2.53
48854;BMP280;34673;52.808;17.856;2024-01-30T04:24:19;101837.88;;;2.53
48854;BMP280;34673;52.808;17.856;2024-01-30T04:26:46;101837.75;;;2.50
48854;BMP280;34673;52.808;17.856;2024-01-30T04:29:13;101837.75;;;2.50
48854;BMP280;34673;52.808;17.856;2024-01-30T04:31:40;101837.75;;;2.50
48854;BMP280;34673;52.808;17.856;2024-01-30T04:34:07;101832.50;;;2.47
48854;BMP280;34673;52.808;17.856;2024-01-30T04:36:35;101830.56;;;2.43
48854;BMP280;34673;52.808;17.856;2024-01-30T04:39:02;101836.69;;;2.47
48854;BMP280;34673;52.808;17.856;2024-01-30T04:41:30;101825.63;;;2.46
48854;BMP280;34673;52.808;17.856;2024-01-30T04:43:59;101832.31;;;2.44
48854;BMP280;34673;52.808;17.856;2024-01-30T04:46:26;101835.53;;;2.40
48854;BMP280;34673;52.808;17.856;2024-01-30T04:48:53;101828.69;;;2.39
48854;BMP280;34673;52.808;17.856;2024-01-30T04:51:20;101828.69;;;2.39
48854;BMP280;34673;52.808;17.856;2024-01-30T04:53:48;101836.56;;;2.43
48854;BMP280;34673;52.808;17.856;2024-01-30T04:56:15;101826.91;;;2.38
48854;BMP280;34673;52.808;17.856;2024-01-30T04:58:42;101833.94;;;2.42
48854;BMP280;34673;52.808;17.856;2024-01-30T05:01:09;101831.25;;;2.39
48854;BMP280;34673;52.808;17.856;2024-01-30T05:03:36;101838.25;;;2.43
48854;BMP280;34673;52.808;17.856;2024-01-30T05:06:04;101839.06;;;2.42
48854;BMP280;34673;52.808;17.856;2024-01-30T05:08:31;101833.81;;;2.39
48854;BMP280;34673;52.808;17.856;2024-01-30T05:11:02;101846.78;;;2.43
48854;BMP280;34673;52.808;17.856;2024-01-30T05:13:33;101839.06;;;2.42
48854;BMP280;34673;52.808;17.856;2024-01-30T05:16:02;101835.53;;;2.40
48854;BMP280;34673;52.808;17.856;2024-01-30T05:18:30;101845.91;;;2.43
48854;BMP280;34673;52.808;17.856;2024-01-30T05:20:57;101836.66;;;2.45
48854;BMP280;34673;52.808;17.856;2024-01-30T05:23:24;101836.69;;;2.47
48854;BMP280;34673;52.808;17.856;2024-01-30T05:25:51;101839.25;;;2.47
48854;BMP280;34673;52.808;17.856;2024-01-30T05:28:19;101843.59;;;2.48
48854;BMP280;34673;52.808;17.856;2024-01-30T05:30:46;101830.72;;;2.46
48854;BMP280;34673;52.808;17.856;2024-01-30T05:33:13;101835.69;;;2.43
48854;BMP280;34673;52.808;17.856;2024-01-30T05:35:40;101835.03;;;2.47
48854;BMP280;34673;52.808;17.856;2024-01-30T05:38:08;101833.38;;;2.48
48854;BMP280;34673;52.808;17.856;2024-01-30T05:40:35;101840.16;;;2.47
48854;BMP280;34673;52.808;17.856;2024-01-30T05:43:02;101844.44;;;2.48
48854;BMP280;34673;52.808;17.856;2024-01-30T05:45:29;101838.47;;;2.48
48854;BMP280;34673;52.808;17.856;2024-01-30T05:47:56;101846.91;;;2.47
48854;BMP280;34673;52.808;17.856;2024-01-30T05:50:24;101843.50;;;2.46
48854;BMP280;34673;52.808;17.856;2024-01-30T05:52:52;101841.75;;;2.45
48854;BMP280;34673;52.808;17.856;2024-01-30T05:55:19;101837.44;;;2.44
48854;BMP280;34673;52.808;17.856;2024-01-30T05:57:47;101836.56;;;2.43
48854;BMP280;34673;52.808;17.856;2024-01-30T06:00:15;101838.25;;;2.43
48854;BMP280;34673;52.808;17.856;2024-01-30T06:02:42;101839.06;;;2.42
48854;BMP280;34673;52.808;17.856;2024-01-30T06:05:09;101842.53;;;2.44
48854;BMP280;34673;52.808;17.856;2024-01-30T06:07:36;101838.25;;;2.43
48854;BMP280;34673;52.808;17.856;2024-01-30T06:10:04;101835.69;;;2.43
48854;BMP280;34673;52.808;17.856;2024-01-30T06:12:31;101839.19;;;2.45
48854;BMP280;34673;52.808;17.856;2024-01-30T06:14:58;101846.03;;;2.46
48854;BMP280;34673;52.808;17.856;2024-01-30T06:17:26;101846.03;;;2.46
48854;BMP280;34673;52.808;17.856;2024-01-30T06:19:53;101846.03;;;2.46
48854;BMP280;34673;52.808;17.856;2024-01-30T06:22:20;101852.94;;;2.47
48854;BMP280;34673;52.808;17.856;2024-01-30T06:24:47;101842.38;;;2.41
48854;BMP280;34673;52.808;17.856;2024-01-30T06:27:15;101842.53;;;2.44
48854;BMP280;34673;52.808;17.856;2024-01-30T06:29:44;101849.56;;;2.48
48854;BMP280;34673;52.808;17.856;2024-01-30T06:32:11;101846.19;;;2.49
48854;BMP280;34673;52.808;17.856;2024-01-30T06:34:38;101839.34;;;2.48
48854;BMP280;34673;52.808;17.856;2024-01-30T06:37:07;101841.16;;;2.51
48854;BMP280;34673;52.808;17.856;2024-01-30T06:39:34;101842.72;;;2.47
48854;BMP280;34673;52.808;17.856;2024-01-30T06:42:01;101836.13;;;2.52
48854;BMP280;34673;52.808;17.856;2024-01-30T06:44:28;101839.34;;;2.48
48854;BMP280;34673;52.808;17.856;2024-01-30T06:46:59;101849.69;;;2.51
48854;BMP280;34673;52.808;17.856;2024-01-30T06:49:26;101847.81;;;2.47
48854;BMP280;34673;52.808;17.856;2024-01-30T06:51:53;101853.22;;;2.53
48854;BMP280;34673;52.808;17.856;2024-01-30T06:54:20;101849.84;;;2.54
48854;BMP280;34673;52.808;17.856;2024-01-30T06:56:48;101843.00;;;2.53
48854;BMP280;34673;52.808;17.856;2024-01-30T06:59:15;101850.00;;;2.57
48854;BMP280;34673;52.808;17.856;2024-01-30T07:01:42;101848.41;;;2.59
48854;BMP280;34673;52.808;17.856;2024-01-30T07:04:09;101846.81;;;2.61
48854;BMP280;34673;52.808;17.856;2024-01-30T07:06:36;101849.41;;;2.63
48854;BMP280;34673;52.808;17.856;2024-01-30T07:09:04;101841.84;;;2.64
48854;BMP280;34673;52.808;17.856;2024-01-30T07:11:32;101838.47;;;2.65
48854;BMP280;34673;52.808;17.856;2024-01-30T07:13:59;101846.34;;;2.70
48854;BMP280;34673;52.808;17.856;2024-01-30T07:16:26;101842.13;;;2.71
48854;BMP280;34673;52.808;17.856;2024-01-30T07:18:53;101843.94;;;2.73
48854;BMP280;34673;52.808;17.856;2024-01-30T07:21:20;101850.06;;;2.77
48854;BMP280;34673;52.808;17.856;2024-01-30T07:23:51;101844.19;;;2.78
48854;BMP280;34673;52.808;17.856;2024-01-30T07:26:19;101850.06;;;2.77
48854;BMP280;34673;52.808;17.856;2024-01-30T07:28:46;101852.94;;;2.83
48854;BMP280;34673;52.808;17.856;2024-01-30T07:31:13;101844.22;;;2.79
48854;BMP280;34673;52.808;17.856;2024-01-30T07:33:40;101853.13;;;2.87
48854;BMP280;34673;52.808;17.856;2024-01-30T07:36:07;101849.72;;;2.87
48854;BMP280;34673;52.808;17.856;2024-01-30T07:38:35;101848.09;;;2.89
48854;BMP280;34673;52.808;17.856;2024-01-30T07:41:02;101855.28;;;2.96
48854;BMP280;34673;52.808;17.856;2024-01-30T07:43:29;101846.78;;;2.97
48854;BMP280;34673;52.808;17.856;2024-01-30T07:45:57;101851.31;;;3.03
48854;BMP280;34673;52.808;17.856;2024-01-30T07:48:24;101850.56;;;3.05
48854;BMP280;34673;52.808;17.856;2024-01-30T07:50:51;101846.47;;;3.09
48854;BMP280;34673;52.808;17.856;2024-01-30T07:53:18;101849.25;;;3.14
48854;BMP280;34673;52.808;17.856;2024-01-30T07:55:46;101845.88;;;3.15
48854;BMP280;34673;52.808;17.856;2024-01-30T07:58:13;101832.03;;;3.09
48854;BMP280;34673;52.808;17.856;2024-01-30T08:00:41;101844.53;;;3.23
48854;BMP280;34673;52.808;17.856;2024-01-30T08:03:08;101846.44;;;3.27
48854;BMP280;34673;52.808;17.856;2024-01-30T08:05:35;101843.22;;;3.31
48854;BMP280;34673;52.808;17.856;2024-01-30T08:08:03;101843.38;;;3.34
48854;BMP280;34673;52.808;17.856;2024-01-30T08:10:30;101844.25;;;3.35
48854;BMP280;34673;52.808;17.856;2024-01-30T08:12:57;101853.13;;;3.43
48854;BMP280;34673;52.808;17.856;2024-01-30T08:15:25;101857.66;;;3.48
48854;BMP280;34673;52.808;17.856;2024-01-30T08:17:52;101849.28;;;3.52
48854;BMP280;34673;52.808;17.856;2024-01-30T08:20:25;101846.00;;;3.55
48854;BMP280;34673;52.808;17.856;2024-01-30T08:22:52;101852.41;;;3.65
48854;BMP280;34673;52.808;17.856;2024-01-30T08:25:19;101845.81;;;3.70
48854;BMP280;34673;52.808;17.856;2024-01-30T08:27:46;101853.88;;;3.79
48854;BMP280;34673;52.808;17.856;2024-01-30T08:30:14;101845.53;;;3.83
48854;BMP280;34673;52.808;17.856;2024-01-30T08:32:41;101849.19;;;3.88
48854;BMP280;34673;52.808;17.856;2024-01-30T08:35:09;101844.31;;;3.94
48854;BMP280;34673;52.808;17.856;2024-01-30T08:37:36;101842.84;;;3.99
48854;BMP280;34673;52.808;17.856;2024-01-30T08:40:06;101842.25;;;4.07
48854;BMP280;34673;52.808;17.856;2024-01-30T08:42:35;101839.91;;;4.11
48854;BMP280;34673;52.808;17.856;2024-01-30T08:45:03;101835.97;;;4.19
48854;BMP280;34673;52.808;17.856;2024-01-30T08:47:31;101838.88;;;4.27
48854;BMP280;34673;52.808;17.856;2024-01-30T08:50:00;101840.88;;;4.34
48854;BMP280;34673;52.808;17.856;2024-01-30T08:52:27;101841.13;;;4.40
48854;BMP280;34673;52.808;17.856;2024-01-30T08:54:55;101832.72;;;4.44
48854;BMP280;34673;52.808;17.856;2024-01-30T08:57:22;101832.19;;;4.52
48854;BMP280;34673;52.808;17.856;2024-01-30T08:59:49;101833.25;;;4.57
48854;BMP280;34673;52.808;17.856;2024-01-30T09:02:16;101842.78;;;4.61
48854;BMP280;34673;52.808;17.856;2024-01-30T09:04:45;101826.63;;;4.62
48854;BMP280;34673;52.808;17.856;2024-01-30T09:07:12;101839.59;;;4.66
48854;BMP280;34673;52.808;17.856;2024-01-30T09:09:41;101832.97;;;4.72
48854;BMP280;34673;52.808;17.856;2024-01-30T09:12:08;101835.59;;;4.73
48854;BMP280;34673;52.808;17.856;2024-01-30T09:14:39;101836.38;;;4.72
48854;BMP280;34673;52.808;17.856;2024-01-30T09:17:07;101833.81;;;4.72
48854;BMP280;34673;52.808;17.856;2024-01-30T09:19:35;101831.16;;;4.69
48854;BMP280;34673;52.808;17.856;2024-01-30T09:22:03;101830.47;;;4.73
48854;BMP280;34673;52.808;17.856;2024-01-30T09:24:30;101827.94;;;4.75
48854;BMP280;34673;52.808;17.856;2024-01-30T09:26:57;101824.47;;;4.73
48854;BMP280;34673;52.808;17.856;2024-01-30T09:29:25;101828.97;;;4.78
48854;BMP280;34673;52.808;17.856;2024-01-30T09:31:52;101827.31;;;4.80
48854;BMP280;34673;52.808;17.856;2024-01-30T09:34:19;101820.69;;;4.85
48854;BMP280;34673;52.808;17.856;2024-01-30T09:36:47;101817.44;;;4.89
48854;BMP280;34673;52.808;17.856;2024-01-30T09:39:14;101820.13;;;4.93
48854;BMP280;34673;52.808;17.856;2024-01-30T09:41:59;101816.03;;;4.98
48854;BMP280;34673;52.808;17.856;2024-01-30T09:44:29;101824.78;;;5.03
48854;BMP280;34673;52.808;17.856;2024-01-30T09:46:57;101809.50;;;5.06
48854;BMP280;34673;52.808;17.856;2024-01-30T09:49:34;101811.50;;;5.13
48854;BMP280;34673;52.808;17.856;2024-01-30T09:52:02;101811.72;;;5.19
48854;BMP280;34673;52.808;17.856;2024-01-30T09:54:30;101806.81;;;5.25
48854;BMP280;34673;52.808;17.856;2024-01-30T09:57:03;101805.28;;;5.30
48854;BMP280;34673;52.808;17.856;2024-01-30T09:59:30;101805.50;;;5.37
48854;BMP280;34673;52.808;17.856;2024-01-30T10:01:58;101795.25;;;5.37
48854;BMP280;34673;52.808;17.856;2024-01-30T10:04:25;101798.09;;;5.44
48854;BMP280;34673;52.808;17.856;2024-01-30T10:06:52;101796.56;;;5.49
48854;BMP280;34673;52.808;17.856;2024-01-30T10:09:19;101789.91;;;5.54
48854;BMP280;34673;52.808;17.856;2024-01-30T10:11:48;101787.63;;;5.62
48854;BMP280;34673;52.808;17.856;2024-01-30T10:14:16;101791.22;;;5.67
48854;BMP280;34673;52.808;17.856;2024-01-30T10:16:43;101774.16;;;5.69
48854;BMP280;34673;52.808;17.856;2024-01-30T10:19:12;101777.84;;;5.77
48854;BMP280;34673;52.808;17.856;2024-01-30T10:21:40;101774.69;;;5.85
48854;BMP280;34673;52.808;17.856;2024-01-30T10:24:07;101770.41;;;5.85
48854;BMP280;34673;52.808;17.856;2024-01-30T10:26:34;101766.16;;;5.86
48854;BMP280;34673;52.808;17.856;2024-01-30T10:29:02;101774.84;;;5.89
48854;BMP280;34673;52.808;17.856;2024-01-30T10:31:29;101776.66;;;5.92
48854;BMP280;34673;52.808;17.856;2024-01-30T10:33:57;101766.50;;;5.95
48854;BMP280;34673;52.808;17.856;2024-01-30T10:36:40;101757.75;;;5.90
48854;BMP280;34673;52.808;17.856;2024-01-30T10:39:10;101767.53;;;6.00
48854;BMP280;34673;52.808;17.856;2024-01-30T10:41:43;101761.66;;;6.04
48854;BMP280;34673;52.808;17.856;2024-01-30T10:44:11;101759.25;;;6.09
48854;BMP280;34673;52.808;17.856;2024-01-30T10:46:41;101768.78;;;6.13
48854;BMP280;34673;52.808;17.856;2024-01-30T10:49:10;101756.94;;;6.16
48854;BMP280;34673;52.808;17.856;2024-01-30T10:51:38;101751.69;;;6.13
48854;BMP280;34673;52.808;17.856;2024-01-30T10:54:06;101751.91;;;6.19
48854;BMP280;34673;52.808;17.856;2024-01-30T10:56:35;101748.50;;;6.20
48854;BMP280;34673;52.808;17.856;2024-01-30T10:59:02;101750.22;;;6.21
48854;BMP280;34673;52.808;17.856;2024-01-30T11:01:30;101743.25;;;6.17
48854;BMP280;34673;52.808;17.856;2024-01-30T11:03:58;101746.50;;;6.12
48854;BMP280;34673;52.808;17.856;2024-01-30T11:06:26;101739.56;;;6.09
48854;BMP280;34673;52.808;17.856;2024-01-30T11:09:03;101749.84;;;6.09
48854;BMP280;34673;52.808;17.856;2024-01-30T11:11:57;101750.81;;;6.13
48854;BMP280;34673;52.808;17.856;2024-01-30T11:14:29;101744.78;;;6.11
48854;BMP280;34673;52.808;17.856;2024-01-30T11:16:58;101738.13;;;6.17
48854;BMP280;34673;52.808;17.856;2024-01-30T11:19:26;101741.72;;;6.22
48854;BMP280;34673;52.808;17.856;2024-01-30T11:21:54;101743.53;;;6.27
48854;BMP280;34673;52.808;17.856;2024-01-30T11:24:24;101731.63;;;6.29
48854;BMP280;34673;52.808;17.856;2024-01-30T11:27:02;101730.00;;;6.31
48854;BMP280;34673;52.808;17.856;2024-01-30T11:29:34;101732.66;;;6.34
48854;BMP280;34673;52.808;17.856;2024-01-30T11:32:02;101727.59;;;6.37
48854;BMP280;34673;52.808;17.856;2024-01-30T11:34:29;101733.56;;;6.36
48854;BMP280;34673;52.808;17.856;2024-01-30T11:36:59;101735.41;;;6.40
48854;BMP280;34673;52.808;17.856;2024-01-30T11:39:32;101726.88;;;6.41
48854;BMP280;34673;52.808;17.856;2024-01-30T11:41:59;101734.53;;;6.39
48854;BMP280;34673;52.808;17.856;2024-01-30T11:44:26;101731.94;;;6.38
48854;BMP280;34673;52.808;17.856;2024-01-30T11:46:53;101731.00;;;6.36
48854;BMP280;34673;52.808;17.856;2024-01-30T11:49:21;101718.97;;;6.35
48854;BMP280;34673;52.808;17.856;2024-01-30T11:51:48;101713.81;;;6.35
48854;BMP280;34673;52.808;17.856;2024-01-30T11:54:16;101709.53;;;6.34
48854;BMP280;34673;52.808;17.856;2024-01-30T11:56:43;101711.06;;;6.29
48854;BMP280;34673;52.808;17.856;2024-01-30T11:59:11;101709.44;;;6.31
48854;BMP280;34673;52.808;17.856;2024-01-30T12:01:38;101700.00;;;6.31
48854;BMP280;34673;52.808;17.856;2024-01-30T12:04:07;101697.41;;;6.30
48854;BMP280;34673;52.808;17.856;2024-01-30T12:06:38;101697.41;;;6.30
48854;BMP280;34673;52.808;17.856;2024-01-30T12:09:06;101692.16;;;6.27
48854;BMP280;34673;52.808;17.856;2024-01-30T12:11:45;101692.16;;;6.27
48854;BMP280;34673;52.808;17.856;2024-01-30T12:14:14;101690.50;;;6.29
48854;BMP280;34673;52.808;17.856;2024-01-30T12:16:42;101694.00;;;6.31
48854;BMP280;34673;52.808;17.856;2024-01-30T12:19:09;101692.38;;;6.33
48854;BMP280;34673;52.808;17.856;2024-01-30T12:21:38;101684.59;;;6.31
48854;BMP280;34673;52.808;17.856;2024-01-30T12:24:06;101676.94;;;6.33
48854;BMP280;34673;52.808;17.856;2024-01-30T12:26:34;101679.69;;;6.39
48854;BMP280;34673;52.808;17.856;2024-01-30T12:29:04;101675.47;;;6.41
48854;BMP280;34673;52.808;17.856;2024-01-30T12:31:32;101669.56;;;6.43
48854;BMP280;34673;52.808;17.856;2024-01-30T12:34:00;101657.50;;;6.41
48854;BMP280;34673;52.808;17.856;2024-01-30T12:36:28;101660.22;;;6.47
48854;BMP280;34673;52.808;17.856;2024-01-30T12:38:57;101663.81;;;6.52
48854;BMP280;34673;52.808;17.856;2024-01-30T12:41:25;101657.03;;;6.54
48854;BMP280;34673;52.808;17.856;2024-01-30T12:43:59;101655.44;;;6.59
48854;BMP280;34673;52.808;17.856;2024-01-30T12:46:29;101659.00;;;6.64
48854;BMP280;34673;52.808;17.856;2024-01-30T12:48:57;101653.16;;;6.69
48854;BMP280;34673;52.808;17.856;2024-01-30T12:51:24;101650.66;;;6.72
48854;BMP280;34673;52.808;17.856;2024-01-30T12:53:51;101649.09;;;6.77
48854;BMP280;34673;52.808;17.856;2024-01-30T12:56:19;101642.19;;;6.76
48854;BMP280;34673;52.808;17.856;2024-01-30T12:58:46;101650.09;;;6.82
48854;BMP280;34673;52.808;17.856;2024-01-30T13:01:17;101646.75;;;6.84
48854;BMP280;34673;52.808;17.856;2024-01-30T13:03:45;101645.97;;;6.87
48854;BMP280;34673;52.808;17.856;2024-01-30T13:06:13;101647.69;;;6.88
48854;BMP280;34673;52.808;17.856;2024-01-30T13:08:40;101641.72;;;6.89
48854;BMP280;34673;52.808;17.856;2024-01-30T13:11:07;101640.97;;;6.93
48854;BMP280;34673;52.808;17.856;2024-01-30T13:13:43;101634.97;;;6.93
48854;BMP280;34673;52.808;17.856;2024-01-30T13:16:10;101636.00;;;6.99
48854;BMP280;34673;52.808;17.856;2024-01-30T13:18:38;101635.19;;;7.02
48854;BMP280;34673;52.808;17.856;2024-01-30T13:21:05;101633.50;;;7.02
48854;BMP280;34673;52.808;17.856;2024-01-30T13:23:32;101624.88;;;7.00
48854;BMP280;34673;52.808;17.856;2024-01-30T13:25:59;101630.13;;;7.03
48854;BMP280;34673;52.808;17.856;2024-01-30T13:28:27;101625.78;;;7.02
48854;BMP280;34673;52.808;17.856;2024-01-30T13:30:54;101624.13;;;7.04
48854;BMP280;34673;52.808;17.856;2024-01-30T13:33:22;101629.28;;;7.04
48854;BMP280;34673;52.808;17.856;2024-01-30T13:35:49;101627.53;;;7.03
48854;BMP280;34673;52.808;17.856;2024-01-30T13:38:16;101628.41;;;7.04
48854;BMP280;34673;52.808;17.856;2024-01-30T13:40:44;101625.84;;;7.05
48854;BMP280;34673;52.808;17.856;2024-01-30T13:43:11;101631.00;;;7.05
48854;BMP280;34673;52.808;17.856;2024-01-30T13:45:39;101624.13;;;7.04
48854;BMP280;34673;52.808;17.856;2024-01-30T13:48:06;101617.25;;;7.03
48854;BMP280;34673;52.808;17.856;2024-01-30T13:50:34;101620.72;;;7.05
48854;BMP280;34673;52.808;17.856;2024-01-30T13:53:03;101616.41;;;7.04
48854;BMP280;34673;52.808;17.856;2024-01-30T13:55:31;101623.19;;;7.01
48854;BMP280;34673;52.808;17.856;2024-01-30T13:57:58;101627.47;;;7.00
48854;BMP280;34673;52.808;17.856;2024-01-30T14:00:26;101616.91;;;6.91